createdAt,value
2018-11-14T00:00:25.346Z,5.40
2018-11-14T00:02:53.537Z,5.40
2018-11-14T00:05:21.723Z,5.30
2018-11-14T00:07:49.941Z,5.20
2018-11-14T00:10:18.727Z,5.20
2018-11-14T00:12:46.642Z,5.20
2018-11-14T00:15:16.246Z,5.10
2018-11-14T00:17:45.532Z,5.00
2018-11-14T00:20:14.093Z,4.90
2018-11-14T00:22:43.196Z,4.90
2018-11-14T00:25:11.386Z,4.90
2018-11-14T00:27:39.591Z,4.80
2018-11-14T00:30:09.642Z,4.80
2018-11-14T00:32:37.845Z,5.00
2018-11-14T00:35:06.062Z,5.30
2018-11-14T00:37:34.271Z,5.30
2018-11-14T00:40:02.461Z,5.40
2018-11-14T00:42:30.661Z,5.60
2018-11-14T00:44:58.859Z,5.40
2018-11-14T00:47:27.069Z,5.40
2018-11-14T00:49:55.298Z,5.40
2018-11-14T00:52:23.541Z,5.30
2018-11-14T00:54:51.739Z,5.30
2018-11-14T00:57:19.950Z,5.20
2018-11-14T00:59:48.141Z,5.10
2018-11-14T01:02:16.321Z,5.00
2018-11-14T01:04:44.501Z,4.90
2018-11-14T01:07:12.730Z,4.80
2018-11-14T01:09:40.933Z,4.80
2018-11-14T01:12:09.229Z,4.80
2018-11-14T01:14:37.334Z,4.70
2018-11-14T01:17:05.939Z,4.60
2018-11-14T01:19:34.131Z,4.70
2018-11-14T01:22:02.351Z,4.80
2018-11-14T01:24:30.583Z,4.80
2018-11-14T01:26:58.787Z,4.90
2018-11-14T01:29:26.977Z,4.90
2018-11-14T01:31:55.165Z,4.80
2018-11-14T01:34:23.370Z,4.70
2018-11-14T01:36:51.554Z,4.70
2018-11-14T01:39:19.749Z,4.60
2018-11-14T01:41:47.942Z,4.70
2018-11-14T01:44:16.129Z,4.70
2018-11-14T01:46:44.345Z,4.60
2018-11-14T01:49:12.543Z,4.50
2018-11-14T01:51:40.749Z,4.50
2018-11-14T01:54:08.945Z,4.40
2018-11-14T01:56:37.121Z,4.40
2018-11-14T01:59:05.306Z,4.30
2018-11-14T02:01:33.486Z,4.30
2018-11-14T02:04:01.719Z,4.30
2018-11-14T02:06:29.892Z,4.20
2018-11-14T02:08:58.090Z,4.30
2018-11-14T02:11:33.044Z,4.40
2018-11-14T02:14:01.249Z,4.40
2018-11-14T02:16:29.432Z,4.50
2018-11-14T02:18:57.626Z,4.50
2018-11-14T02:21:25.809Z,4.40
2018-11-14T02:23:54.016Z,4.40
2018-11-14T02:26:22.206Z,4.30
2018-11-14T02:28:51.765Z,4.40
2018-11-14T02:31:19.975Z,4.30
2018-11-14T02:33:48.191Z,4.40
2018-11-14T02:36:16.378Z,4.40
2018-11-14T02:38:44.584Z,4.50
2018-11-14T02:41:12.774Z,4.40
2018-11-14T02:43:40.961Z,4.30
2018-11-14T02:46:09.157Z,4.20
2018-11-14T02:48:37.354Z,4.20
2018-11-14T02:51:15.676Z,4.10
2018-11-14T02:53:43.871Z,4.00
2018-11-14T02:56:12.111Z,4.00
2018-11-14T02:58:40.310Z,4.00
2018-11-14T03:01:08.765Z,4.10
2018-11-14T03:06:11.576Z,4.00
2018-11-14T03:08:39.774Z,4.00
2018-11-14T03:11:08.529Z,3.90
2018-11-14T03:13:36.721Z,3.90
2018-11-14T03:16:05.041Z,3.90
2018-11-14T03:18:33.289Z,3.80
2018-11-14T03:21:01.569Z,3.80
2018-11-14T03:23:29.769Z,3.70
2018-11-14T03:25:57.969Z,3.70
2018-11-14T03:28:26.214Z,3.70
2018-11-14T03:30:54.393Z,3.70
2018-11-14T03:33:22.622Z,3.70
2018-11-14T03:35:56.177Z,3.70
2018-11-14T03:38:24.369Z,3.70
2018-11-14T03:40:52.555Z,3.70
2018-11-14T03:43:20.761Z,3.70
2018-11-14T03:45:48.972Z,3.60
2018-11-14T03:48:17.153Z,3.60
2018-11-14T03:50:45.353Z,3.70
2018-11-14T03:53:13.542Z,3.60
2018-11-14T03:55:41.737Z,3.60
2018-11-14T03:58:09.970Z,3.60
2018-11-14T04:00:38.130Z,3.60
2018-11-14T04:03:06.649Z,3.60
2018-11-14T04:05:34.895Z,3.60
2018-11-14T04:08:03.058Z,3.60
2018-11-14T04:10:31.249Z,3.60
2018-11-14T04:12:59.451Z,3.50
2018-11-14T04:15:27.648Z,3.60
2018-11-14T04:17:55.835Z,3.50
2018-11-14T04:20:24.030Z,3.50
2018-11-14T04:22:52.219Z,3.40
2018-11-14T04:25:21.058Z,3.40
2018-11-14T04:27:49.617Z,3.40
2018-11-14T04:30:19.231Z,3.40
2018-11-14T04:32:47.417Z,3.40
2018-11-14T04:35:16.506Z,3.30
2018-11-14T04:37:44.758Z,3.40
2018-11-14T04:40:15.005Z,3.40
2018-11-14T04:42:43.186Z,3.30
2018-11-14T04:45:16.296Z,3.40
2018-11-14T04:47:44.561Z,3.40
2018-11-14T04:50:14.865Z,3.40
2018-11-14T04:52:43.537Z,3.30
2018-11-14T04:55:13.873Z,3.40
2018-11-14T04:57:42.457Z,3.30
2018-11-14T05:00:11.972Z,3.30
2018-11-14T05:02:41.222Z,3.20
2018-11-14T05:05:11.494Z,3.20
2018-11-14T05:07:39.962Z,3.20
2018-11-14T05:10:10.080Z,3.20
2018-11-14T05:12:38.371Z,3.20
2018-11-14T05:15:07.230Z,3.30
2018-11-14T05:17:35.429Z,3.30
2018-11-14T05:20:03.641Z,3.30
2018-11-14T05:22:31.897Z,3.20
2018-11-14T05:25:00.261Z,3.20
2018-11-14T05:27:28.453Z,3.20
2018-11-14T05:29:56.649Z,3.10
2018-11-14T05:32:24.851Z,3.10
2018-11-14T05:34:53.099Z,3.10
2018-11-14T05:37:21.276Z,3.00
2018-11-14T05:39:49.639Z,2.90
2018-11-14T05:42:17.723Z,2.90
2018-11-14T05:44:46.013Z,2.90
2018-11-14T05:47:14.202Z,2.90
2018-11-14T05:49:42.421Z,2.90
2018-11-14T05:52:10.675Z,2.90
2018-11-14T05:54:39.295Z,2.90
2018-11-14T05:57:07.542Z,2.90
2018-11-14T05:59:35.748Z,3.00
2018-11-14T06:02:03.947Z,3.00
2018-11-14T06:04:32.186Z,3.00
2018-11-14T06:07:00.432Z,3.10
2018-11-14T06:09:28.610Z,3.10
2018-11-14T06:11:56.813Z,3.10
2018-11-14T06:14:25.013Z,3.20
2018-11-14T06:16:53.249Z,3.20
2018-11-14T06:19:21.425Z,3.20
2018-11-14T06:21:49.924Z,3.30
2018-11-14T06:24:18.067Z,3.30
2018-11-14T06:26:46.277Z,3.40
2018-11-14T06:29:14.491Z,3.50
2018-11-14T06:31:42.714Z,3.60
2018-11-14T06:34:10.947Z,3.80
2018-11-14T06:36:39.178Z,3.80
2018-11-14T06:39:10.298Z,3.80
2018-11-14T06:41:38.545Z,3.80
2018-11-14T06:44:07.667Z,3.90
2018-11-14T06:46:35.911Z,4.00
2018-11-14T06:49:04.223Z,3.90
2018-11-14T06:51:32.466Z,3.80
2018-11-14T06:54:00.650Z,3.60
2018-11-14T06:56:28.863Z,3.50
2018-11-14T06:58:57.162Z,3.40
2018-11-14T07:01:25.388Z,3.40
2018-11-14T07:03:53.606Z,3.50
2018-11-14T07:06:21.831Z,3.40
2018-11-14T07:08:50.053Z,3.40
2018-11-14T07:11:18.286Z,3.40
2018-11-14T07:13:46.489Z,3.40
2018-11-14T07:16:14.718Z,3.60
2018-11-14T07:18:42.918Z,3.80
2018-11-14T07:21:11.169Z,3.90
2018-11-14T07:23:39.409Z,3.80
2018-11-14T07:26:07.597Z,3.90
2018-11-14T07:28:35.794Z,4.20
2018-11-14T07:31:04.009Z,4.20
2018-11-14T07:33:32.252Z,4.20
2018-11-14T07:36:00.495Z,4.20
2018-11-14T07:38:48.379Z,4.10
2018-11-14T07:41:28.670Z,4.30
2018-11-14T07:43:57.152Z,4.50
2018-11-14T07:46:26.859Z,4.30
2018-11-14T07:48:55.131Z,4.20
2018-11-14T07:51:23.322Z,4.20
2018-11-14T07:53:51.710Z,4.20
2018-11-14T07:56:19.976Z,4.40
2018-11-14T07:58:48.254Z,4.40
2018-11-14T08:01:16.549Z,4.40
2018-11-14T08:03:45.202Z,4.40
2018-11-14T08:06:13.456Z,4.60
2018-11-14T08:08:41.953Z,4.70
2018-11-14T08:11:10.222Z,4.70
2018-11-14T08:13:39.946Z,4.70
2018-11-14T08:16:08.162Z,4.80
2018-11-14T08:18:36.417Z,5.00
2018-11-14T08:21:04.976Z,5.10
2018-11-14T08:23:33.207Z,5.20
2018-11-14T08:26:01.407Z,5.30
2018-11-14T08:28:29.633Z,5.30
2018-11-14T08:30:57.850Z,5.30
2018-11-14T08:33:26.091Z,5.40
2018-11-14T08:35:54.393Z,5.50
2018-11-14T08:38:22.664Z,5.60
2018-11-14T08:40:50.881Z,5.70
2018-11-14T08:43:19.100Z,5.70
2018-11-14T08:45:47.363Z,5.70
2018-11-14T08:48:15.582Z,5.70
2018-11-14T08:50:43.790Z,5.70
2018-11-14T08:53:12.276Z,5.80
2018-11-14T08:55:40.475Z,6.00
2018-11-14T08:58:11.910Z,6.00
2018-11-14T09:00:40.169Z,6.10
2018-11-14T09:03:10.303Z,6.10
2018-11-14T09:05:38.527Z,6.30
2018-11-14T09:08:06.751Z,6.30
2018-11-14T09:10:34.998Z,6.20
2018-11-14T09:13:03.302Z,6.30
2018-11-14T09:15:31.454Z,6.40
2018-11-14T09:17:59.745Z,6.50
2018-11-14T09:20:28.654Z,6.50
2018-11-14T09:22:56.881Z,6.60
2018-11-14T09:25:28.271Z,6.70
2018-11-14T09:27:57.135Z,6.70
2018-11-14T09:30:26.157Z,6.70
2018-11-14T09:32:54.462Z,6.70
2018-11-14T09:35:23.813Z,6.70
2018-11-14T09:37:52.577Z,6.80
2018-11-14T09:40:22.211Z,6.80
2018-11-14T09:42:50.417Z,6.90
2018-11-14T09:45:20.098Z,6.90
2018-11-14T09:47:48.360Z,7.10
2018-11-14T09:50:17.883Z,7.20
2018-11-14T09:52:47.406Z,7.30
2018-11-14T09:55:15.634Z,7.40
2018-11-14T09:57:44.261Z,7.50
2018-11-14T10:00:15.913Z,7.50
2018-11-14T10:02:44.257Z,7.50
2018-11-14T10:05:15.745Z,7.50
2018-11-14T10:07:44.341Z,7.50
2018-11-14T10:10:13.939Z,7.50
2018-11-14T10:12:42.139Z,7.50
2018-11-14T10:15:22.707Z,7.60
2018-11-14T10:17:50.887Z,7.80
2018-11-14T10:20:20.662Z,7.90
2018-11-14T10:22:48.914Z,7.90
2018-11-14T10:25:17.446Z,8.10
2018-11-14T10:27:46.294Z,8.20
2018-11-14T10:30:16.773Z,8.30
2018-11-14T10:32:45.743Z,8.40
2018-11-14T10:35:14.000Z,8.50
2018-11-14T10:37:42.517Z,8.40
2018-11-14T10:40:13.427Z,8.50
2018-11-14T10:42:42.592Z,8.40
2018-11-14T10:45:12.230Z,8.40
2018-11-14T10:47:40.745Z,8.50
2018-11-14T10:50:11.359Z,8.50
2018-11-14T10:52:39.629Z,8.40
2018-11-14T10:55:08.926Z,8.40
2018-11-14T10:57:37.707Z,8.40
2018-11-14T11:00:12.902Z,8.50
2018-11-14T11:02:46.466Z,8.60
2018-11-14T11:07:22.054Z,8.40
2018-11-14T11:10:53.141Z,8.40
2018-11-14T11:15:33.599Z,8.30
2018-11-14T11:18:04.139Z,8.50
2018-11-14T11:20:32.385Z,8.50
2018-11-14T11:23:00.618Z,8.60
2018-11-14T11:25:28.881Z,8.60
2018-11-14T11:27:57.107Z,8.70
2018-11-14T11:30:25.334Z,8.80
2018-11-14T11:32:53.582Z,8.80
2018-11-14T11:35:21.830Z,8.80
2018-11-14T11:37:50.033Z,8.80
2018-11-14T11:40:18.276Z,8.80
2018-11-14T11:42:46.498Z,8.90
2018-11-14T11:45:14.713Z,8.80
2018-11-14T11:47:42.920Z,8.90
2018-11-14T11:50:11.148Z,8.90
2018-11-14T11:52:39.324Z,8.90
2018-11-14T11:55:07.710Z,8.90
2018-11-14T11:57:35.970Z,8.90
2018-11-14T12:00:05.619Z,8.90
2018-11-14T12:02:33.835Z,8.70
2018-11-14T12:05:02.053Z,8.70
2018-11-14T12:07:30.270Z,8.80
2018-11-14T12:09:58.494Z,8.70
2018-11-14T12:12:26.726Z,8.70
2018-11-14T12:14:54.956Z,8.70
2018-11-14T12:17:23.206Z,8.80
2018-11-14T12:19:51.476Z,8.80
2018-11-14T12:22:19.701Z,8.70
2018-11-14T12:24:47.918Z,8.90
2018-11-14T12:27:16.228Z,8.80
2018-11-14T12:29:44.451Z,8.80
2018-11-14T12:32:12.853Z,8.90
2018-11-14T12:34:41.148Z,9.00
2018-11-14T12:37:09.297Z,9.10
2018-11-14T12:39:37.587Z,9.10
2018-11-14T12:42:06.129Z,9.00
2018-11-14T12:44:34.345Z,9.00
2018-11-14T12:47:02.565Z,9.10
2018-11-14T12:49:30.781Z,9.10
2018-11-14T12:51:59.027Z,9.20
2018-11-14T12:54:27.238Z,9.30
2018-11-14T12:56:55.506Z,9.40
2018-11-14T12:59:23.857Z,9.50
2018-11-14T13:01:52.034Z,9.60
2018-11-14T13:04:20.229Z,9.70
2018-11-14T13:06:48.468Z,9.60
2018-11-14T13:09:16.681Z,9.50
2018-11-14T13:11:44.877Z,9.40
2018-11-14T13:14:13.092Z,9.30
2018-11-14T13:16:41.315Z,9.40
2018-11-14T13:19:09.540Z,9.40
2018-11-14T13:21:37.761Z,9.40
2018-11-14T13:24:06.005Z,9.30
2018-11-14T13:26:34.253Z,9.30
2018-11-14T13:29:02.537Z,9.30
2018-11-14T13:31:30.763Z,9.30
2018-11-14T13:33:59.009Z,9.30
2018-11-14T13:36:27.234Z,9.30
2018-11-14T13:38:55.441Z,9.30
2018-11-14T13:41:23.642Z,9.20
2018-11-14T13:43:51.911Z,9.20
2018-11-14T13:46:20.126Z,9.20
2018-11-14T13:48:48.365Z,9.30
2018-11-14T13:51:16.778Z,9.20
2018-11-14T13:53:44.761Z,9.20
2018-11-14T13:56:13.013Z,9.20
2018-11-14T13:58:41.209Z,9.00
2018-11-14T14:01:09.473Z,9.00
2018-11-14T14:03:37.654Z,9.00
2018-11-14T14:06:05.857Z,9.10
2018-11-14T14:08:34.070Z,9.10
2018-11-14T14:11:02.286Z,9.10
2018-11-14T14:13:30.508Z,9.30
2018-11-14T14:15:58.718Z,9.20
2018-11-14T14:18:26.925Z,9.20
2018-11-14T14:20:55.145Z,9.20
2018-11-14T14:23:23.345Z,9.10
2018-11-14T14:25:51.563Z,9.20
2018-11-14T14:28:19.767Z,9.20
2018-11-14T14:30:48.035Z,9.10
2018-11-14T14:33:16.208Z,9.10
2018-11-14T14:35:44.422Z,9.10
2018-11-14T14:38:12.750Z,9.10
2018-11-14T14:40:40.897Z,9.00
2018-11-14T14:43:09.101Z,9.10
2018-11-14T14:45:37.324Z,9.10
2018-11-14T14:48:05.890Z,9.10
2018-11-14T14:50:34.105Z,9.00
2018-11-14T14:53:02.310Z,9.00
2018-11-14T14:55:30.521Z,9.00
2018-11-14T14:57:58.747Z,8.90
2018-11-14T15:00:28.055Z,9.00
2018-11-14T15:02:56.365Z,8.90
2018-11-14T15:05:24.578Z,8.80
2018-11-14T15:07:52.790Z,8.90
2018-11-14T15:10:22.162Z,8.90
2018-11-14T15:12:50.358Z,8.90
2018-11-14T15:15:19.038Z,8.80
2018-11-14T15:17:47.314Z,8.70
2018-11-14T15:20:17.631Z,8.70
2018-11-14T15:22:46.274Z,8.70
2018-11-14T15:25:15.786Z,8.80
2018-11-14T15:27:44.525Z,8.80
2018-11-14T15:30:15.646Z,8.70
2018-11-14T15:32:43.853Z,8.60
2018-11-14T15:35:13.554Z,8.70
2018-11-14T15:43:27.217Z,8.80
2018-11-14T15:45:55.877Z,8.70
2018-11-14T15:48:24.463Z,8.60
2018-11-14T15:50:53.065Z,8.50
2018-11-14T15:53:21.694Z,8.40
2018-11-14T15:55:50.425Z,8.30
2018-11-14T15:58:19.799Z,8.20
2018-11-14T16:00:48.537Z,8.20
2018-11-14T16:03:17.462Z,8.20
2018-11-14T16:05:46.675Z,8.10
2018-11-14T16:08:16.653Z,8.20
2018-11-14T16:10:48.990Z,8.20
2018-11-14T16:13:18.810Z,8.20
2018-11-14T16:15:47.202Z,8.20
2018-11-14T16:18:17.203Z,8.20
2018-11-14T16:20:45.744Z,8.20
2018-11-14T16:23:14.450Z,8.20
2018-11-14T16:25:43.294Z,8.10
2018-11-14T16:28:12.116Z,8.00
2018-11-14T16:30:40.820Z,8.00
2018-11-14T16:33:09.624Z,7.90
2018-11-14T16:35:38.306Z,8.00
2018-11-14T16:38:10.413Z,7.90
2018-11-14T16:40:38.971Z,7.90
2018-11-14T16:43:09.752Z,8.00
2018-11-14T16:45:38.269Z,7.90
2018-11-14T16:48:07.010Z,7.90
2018-11-14T16:50:35.855Z,8.00
2018-11-14T16:53:05.503Z,8.00
2018-11-14T16:55:35.893Z,7.90
2018-11-14T16:58:05.816Z,7.90
2018-11-14T17:00:34.971Z,8.00
2018-11-14T17:03:04.169Z,8.00
2018-11-14T17:05:33.475Z,8.00
2018-11-14T17:08:02.694Z,8.00
2018-11-14T17:10:31.819Z,8.00
2018-11-14T17:13:01.350Z,7.80
2018-11-14T17:15:30.183Z,7.60
2018-11-14T17:17:59.202Z,7.60
2018-11-14T17:20:28.726Z,7.50
2018-11-14T17:23:11.000Z,7.40
2018-11-14T17:25:39.697Z,7.30
2018-11-14T17:28:08.788Z,7.40
2018-11-14T17:30:37.589Z,7.50
2018-11-14T17:33:11.180Z,7.50
2018-11-14T17:35:40.152Z,7.60
2018-11-14T17:38:09.359Z,7.80
2018-11-14T17:40:38.713Z,7.70
2018-11-14T17:43:07.620Z,7.60
2018-11-14T17:45:38.060Z,7.50
2018-11-14T17:48:06.265Z,7.40
2018-11-14T17:50:34.760Z,7.40
2018-11-14T17:53:03.637Z,7.50
2018-11-14T17:55:32.027Z,7.40
2018-11-14T17:58:00.505Z,7.50
2018-11-14T18:00:29.997Z,7.50
2018-11-14T18:02:58.228Z,7.40
2018-11-14T18:05:27.673Z,7.40
2018-11-14T18:07:56.042Z,7.30
2018-11-14T18:10:25.511Z,7.20
2018-11-14T18:12:54.662Z,7.20
2018-11-14T18:15:22.867Z,7.10
2018-11-14T18:17:52.810Z,7.10
2018-11-14T18:20:22.379Z,7.10
2018-11-14T18:22:51.368Z,7.10
2018-11-14T18:25:22.537Z,7.10
2018-11-14T18:27:50.797Z,7.10
2018-11-14T18:30:20.221Z,7.10
2018-11-14T18:32:48.685Z,7.20
2018-11-14T18:35:17.848Z,7.20
2018-11-14T18:37:46.644Z,7.00
2018-11-14T18:40:17.083Z,7.00
2018-11-14T18:42:45.391Z,6.90
2018-11-14T18:45:19.022Z,6.90
2018-11-14T18:47:47.641Z,7.00
2018-11-14T18:50:16.722Z,6.90
2018-11-14T18:52:45.730Z,6.90
2018-11-14T18:55:15.276Z,7.00
2018-11-14T18:57:43.775Z,6.90
2018-11-14T19:00:15.546Z,6.80
2018-11-14T19:02:44.054Z,6.80
2018-11-14T19:05:12.647Z,6.70
2018-11-14T19:07:41.123Z,6.80
2018-11-14T19:10:11.764Z,6.80
2018-11-14T19:12:40.508Z,6.80
2018-11-14T19:15:15.893Z,6.80
2018-11-14T19:17:44.125Z,6.70
2018-11-14T19:20:13.891Z,6.60
2018-11-14T19:22:42.367Z,6.70
2018-11-14T19:25:13.086Z,6.40
2018-11-14T19:27:41.785Z,6.40
2018-11-14T19:30:12.418Z,6.40
2018-11-14T19:32:40.893Z,6.30
2018-11-14T19:35:10.415Z,6.30
2018-11-14T19:37:38.886Z,6.30
2018-11-14T19:40:09.440Z,6.40
2018-11-14T19:42:37.673Z,6.50
2018-11-14T19:45:09.468Z,6.40
2018-11-14T19:47:37.698Z,6.40
2018-11-14T19:50:08.046Z,6.40
2018-11-14T19:52:36.334Z,6.40
2018-11-14T19:55:04.905Z,6.30
2018-11-14T19:57:33.131Z,6.30
2018-11-14T20:00:01.548Z,6.20
2018-11-14T20:02:29.787Z,6.20
2018-11-14T20:04:58.030Z,6.20
2018-11-14T20:07:26.235Z,6.30
2018-11-14T20:09:54.449Z,6.30
2018-11-14T20:12:22.753Z,6.30
2018-11-14T20:14:51.084Z,6.40
2018-11-14T20:17:19.310Z,6.40
2018-11-14T20:19:47.522Z,6.50
2018-11-14T20:22:15.771Z,6.60
2018-11-14T20:24:44.072Z,6.60
2018-11-14T20:27:12.270Z,6.60
2018-11-14T20:29:40.539Z,6.70
2018-11-14T20:32:08.829Z,6.80
2018-11-14T20:34:37.072Z,6.80
2018-11-14T20:37:05.323Z,6.70
2018-11-14T20:39:33.533Z,6.70
2018-11-14T20:42:01.779Z,6.70
2018-11-14T20:44:30.210Z,6.70
2018-11-14T20:46:58.434Z,6.60
2018-11-14T20:49:26.662Z,6.50
2018-11-14T20:51:54.872Z,6.50
2018-11-14T20:54:23.078Z,6.60
2018-11-14T20:56:51.272Z,6.60
2018-11-14T20:59:19.475Z,6.80
2018-11-14T21:01:47.668Z,6.70
2018-11-14T21:04:15.870Z,6.70
2018-11-14T21:06:44.070Z,6.90
2018-11-14T21:09:12.286Z,6.80
2018-11-14T21:11:40.488Z,6.70
2018-11-14T21:14:08.693Z,6.60
2018-11-14T21:16:36.892Z,6.60
2018-11-14T21:19:05.103Z,6.70
2018-11-14T21:21:33.301Z,6.70
2018-11-14T21:24:01.549Z,6.60
2018-11-14T21:26:29.729Z,6.60
2018-11-14T21:28:57.968Z,6.60
2018-11-14T21:31:26.158Z,6.70
2018-11-14T21:33:54.389Z,6.70
2018-11-14T21:36:22.583Z,6.60
2018-11-14T21:38:50.789Z,6.60
2018-11-14T21:41:19.001Z,6.80
2018-11-14T21:43:47.205Z,7.00
2018-11-14T21:46:15.446Z,6.90
2018-11-14T21:48:43.653Z,6.80
2018-11-14T21:51:11.892Z,6.80
2018-11-14T21:53:40.097Z,6.80
2018-11-14T21:56:08.304Z,6.90
2018-11-14T21:58:36.518Z,6.70
2018-11-14T22:01:05.143Z,6.60
2018-11-14T22:03:33.353Z,6.60
2018-11-14T22:06:01.583Z,6.50
2018-11-14T22:08:29.770Z,6.60
2018-11-14T22:10:57.973Z,6.50
2018-11-14T22:13:26.201Z,6.70
2018-11-14T22:15:54.406Z,6.70
2018-11-14T22:18:22.621Z,6.80
2018-11-14T22:20:50.815Z,6.70
2018-11-14T22:23:19.012Z,6.70
2018-11-14T22:25:47.209Z,6.70
2018-11-14T22:28:15.399Z,6.90
2018-11-14T22:30:43.602Z,6.90
2018-11-14T22:33:11.785Z,6.90
2018-11-14T22:35:39.977Z,6.80
2018-11-14T22:38:08.158Z,6.80
2018-11-14T22:40:36.394Z,6.90
2018-11-14T22:43:04.694Z,6.80
2018-11-14T22:45:33.423Z,6.70
2018-11-14T22:48:01.617Z,6.70
2018-11-14T22:50:29.807Z,6.60
2018-11-14T22:52:58.007Z,6.40
2018-11-14T22:55:26.532Z,6.30
2018-11-14T22:57:55.013Z,6.30
2018-11-14T23:00:26.261Z,6.30
2018-11-14T23:02:55.549Z,6.20
2018-11-14T23:05:23.787Z,6.20
2018-11-14T23:07:53.060Z,6.10
2018-11-14T23:10:22.121Z,6.10
2018-11-14T23:12:50.597Z,5.90
2018-11-14T23:15:19.313Z,5.80
2018-11-14T23:17:47.478Z,5.80
2018-11-14T23:20:16.366Z,5.80
2018-11-14T23:22:45.253Z,5.80
2018-11-14T23:25:13.942Z,5.70
2018-11-14T23:27:44.071Z,5.70
2018-11-14T23:30:13.268Z,5.60
2018-11-14T23:32:42.651Z,5.60
2018-11-14T23:35:16.189Z,5.60
2018-11-14T23:37:45.870Z,5.60
2018-11-14T23:40:14.066Z,5.70
2018-11-14T23:42:42.281Z,5.70
2018-11-14T23:45:12.551Z,5.50
2018-11-14T23:47:41.114Z,5.50
2018-11-14T23:50:11.998Z,5.50
2018-11-14T23:52:40.585Z,5.50
2018-11-14T23:55:09.142Z,5.50
2018-11-14T23:57:37.609Z,5.50
